Buffalo, Oklahoma
Current Conditions -  °F | °C
As of 8:15 PM on Monday 22 Dec 2014 (Local Time) from KWWR Reporting Station
Clear Clear  
Wind Chill: 31°   Ceiling: Unl
Heat Index: 37°   Visibility: 10mi
Dew Point: 30°   Wind: 9mph
Humidity: 75%   Direction: 230°SW
Pressure: 29.73"   Gusts: NA
Location:  36.84°N, 99.63°W
Report Text: KWWR 230215Z AUTO 23008KT 10SM CLR 03/M01 A2973 RMK AO2
Loading
Personal Weather Stations






























Interactive Weather Map New forecast layout! Learn more

10-Day Weather Forecast

Advertisements
Track Severe Weather on mobile